sensor_id;sensor_type;location;lat;lon;timestamp;temperature;humidity
43894;DHT22;29556;50.846;4.442;2022-08-05T00:02:10;22.00;87.30
43894;DHT22;29556;50.846;4.442;2022-08-05T00:04:36;21.90;87.10
43894;DHT22;29556;50.846;4.442;2022-08-05T00:07:02;21.90;87.30
43894;DHT22;29556;50.846;4.442;2022-08-05T00:09:28;21.90;87.20
43894;DHT22;29556;50.846;4.442;2022-08-05T00:11:56;21.90;87.50
43894;DHT22;29556;50.846;4.442;2022-08-05T00:14:25;21.90;87.40
43894;DHT22;29556;50.846;4.442;2022-08-05T00:16:51;21.80;87.40
43894;DHT22;29556;50.846;4.442;2022-08-05T00:19:16;21.90;87.60
43894;DHT22;29556;50.846;4.442;2022-08-05T00:21:42;21.80;87.50
43894;DHT22;29556;50.846;4.442;2022-08-05T00:24:07;21.80;87.60
43894;DHT22;29556;50.846;4.442;2022-08-05T00:26:33;21.80;87.60
43894;DHT22;29556;50.846;4.442;2022-08-05T00:29:00;21.80;87.50
43894;DHT22;29556;50.846;4.442;2022-08-05T00:31:25;21.80;87.60
43894;DHT22;29556;50.846;4.442;2022-08-05T00:33:51;21.80;87.70
43894;DHT22;29556;50.846;4.442;2022-08-05T00:36:16;21.70;87.60
43894;DHT22;29556;50.846;4.442;2022-08-05T00:38:42;21.70;87.00
43894;DHT22;29556;50.846;4.442;2022-08-05T00:41:09;21.70;87.60
43894;DHT22;29556;50.846;4.442;2022-08-05T00:43:35;21.70;87.70
43894;DHT22;29556;50.846;4.442;2022-08-05T00:46:01;21.70;87.70
43894;DHT22;29556;50.846;4.442;2022-08-05T00:48:27;21.80;87.90
43894;DHT22;29556;50.846;4.442;2022-08-05T00:50:52;21.60;87.70
43894;DHT22;29556;50.846;4.442;2022-08-05T00:53:22;21.60;87.80
43894;DHT22;29556;50.846;4.442;2022-08-05T00:55:48;21.60;87.80
43894;DHT22;29556;50.846;4.442;2022-08-05T00:58:16;21.50;87.80
43894;DHT22;29556;50.846;4.442;2022-08-05T01:00:42;21.50;87.90
43894;DHT22;29556;50.846;4.442;2022-08-05T01:03:08;21.50;87.90
43894;DHT22;29556;50.846;4.442;2022-08-05T01:05:35;21.50;88.10
43894;DHT22;29556;50.846;4.442;2022-08-05T01:08:01;21.50;88.20
43894;DHT22;29556;50.846;4.442;2022-08-05T01:10:30;21.50;88.20
43894;DHT22;29556;50.846;4.442;2022-08-05T01:13:02;21.50;88.20
43894;DHT22;29556;50.846;4.442;2022-08-05T01:15:34;21.50;87.90
43894;DHT22;29556;50.846;4.442;2022-08-05T01:18:08;21.40;87.70
43894;DHT22;29556;50.846;4.442;2022-08-05T01:23:12;21.20;88.30
43894;DHT22;29556;50.846;4.442;2022-08-05T01:28:45;21.30;88.00
43894;DHT22;29556;50.846;4.442;2022-08-05T01:31:36;21.30;88.30
43894;DHT22;29556;50.846;4.442;2022-08-05T01:34:24;21.30;88.30
43894;DHT22;29556;50.846;4.442;2022-08-05T01:37:04;21.20;88.20
43894;DHT22;29556;50.846;4.442;2022-08-05T01:39:33;21.20;88.50
43894;DHT22;29556;50.846;4.442;2022-08-05T01:42:01;21.20;88.70
43894;DHT22;29556;50.846;4.442;2022-08-05T01:44:28;21.20;88.50
43894;DHT22;29556;50.846;4.442;2022-08-05T01:46:55;21.20;88.70
43894;DHT22;29556;50.846;4.442;2022-08-05T01:49:22;21.20;88.40
43894;DHT22;29556;50.846;4.442;2022-08-05T01:51:51;21.10;88.10
43894;DHT22;29556;50.846;4.442;2022-08-05T01:54:20;21.10;88.00
43894;DHT22;29556;50.846;4.442;2022-08-05T01:56:48;21.00;88.10
43894;DHT22;29556;50.846;4.442;2022-08-05T01:59:17;21.10;88.30
43894;DHT22;29556;50.846;4.442;2022-08-05T02:01:46;21.10;88.30
43894;DHT22;29556;50.846;4.442;2022-08-05T02:04:14;20.90;88.20
43894;DHT22;29556;50.846;4.442;2022-08-05T02:06:41;21.00;88.50
43894;DHT22;29556;50.846;4.442;2022-08-05T02:09:07;21.00;89.40
43894;DHT22;29556;50.846;4.442;2022-08-05T02:14:41;21.00;88.60
43894;DHT22;29556;50.846;4.442;2022-08-05T02:17:16;21.00;88.40
43894;DHT22;29556;50.846;4.442;2022-08-05T02:19:51;21.00;88.60
43894;DHT22;29556;50.846;4.442;2022-08-05T02:22:28;21.00;88.50
43894;DHT22;29556;50.846;4.442;2022-08-05T02:25:17;21.00;88.70
43894;DHT22;29556;50.846;4.442;2022-08-05T02:27:48;21.00;88.70
43894;DHT22;29556;50.846;4.442;2022-08-05T02:30:16;20.90;88.40
43894;DHT22;29556;50.846;4.442;2022-08-05T02:32:49;21.00;88.80
43894;DHT22;29556;50.846;4.442;2022-08-05T02:35:20;21.00;88.90
43894;DHT22;29556;50.846;4.442;2022-08-05T02:37:46;21.00;89.40
43894;DHT22;29556;50.846;4.442;2022-08-05T02:40:16;21.10;89.30
43894;DHT22;29556;50.846;4.442;2022-08-05T02:42:44;21.10;89.20
43894;DHT22;29556;50.846;4.442;2022-08-05T02:45:11;21.10;89.10
43894;DHT22;29556;50.846;4.442;2022-08-05T02:47:38;21.00;89.20
43894;DHT22;29556;50.846;4.442;2022-08-05T02:50:05;21.00;88.70
43894;DHT22;29556;50.846;4.442;2022-08-05T02:52:32;21.00;89.20
43894;DHT22;29556;50.846;4.442;2022-08-05T02:55:00;21.00;89.20
43894;DHT22;29556;50.846;4.442;2022-08-05T02:57:27;21.00;89.30
43894;DHT22;29556;50.846;4.442;2022-08-05T02:59:53;21.00;89.40
43894;DHT22;29556;50.846;4.442;2022-08-05T03:02:25;21.00;89.40
43894;DHT22;29556;50.846;4.442;2022-08-05T03:04:54;21.00;89.10
43894;DHT22;29556;50.846;4.442;2022-08-05T03:07:22;21.00;89.30
43894;DHT22;29556;50.846;4.442;2022-08-05T03:09:49;21.00;89.40
43894;DHT22;29556;50.846;4.442;2022-08-05T03:12:34;21.00;89.50
43894;DHT22;29556;50.846;4.442;2022-08-05T03:15:01;21.10;89.50
43894;DHT22;29556;50.846;4.442;2022-08-05T03:17:40;21.00;89.50
43894;DHT22;29556;50.846;4.442;2022-08-05T03:20:11;21.00;89.50
43894;DHT22;29556;50.846;4.442;2022-08-05T03:22:56;21.00;89.50
43894;DHT22;29556;50.846;4.442;2022-08-05T03:25:25;21.00;89.30
43894;DHT22;29556;50.846;4.442;2022-08-05T03:27:51;20.90;89.40
43894;DHT22;29556;50.846;4.442;2022-08-05T03:30:16;20.90;89.50
43894;DHT22;29556;50.846;4.442;2022-08-05T03:32:42;20.90;89.60
43894;DHT22;29556;50.846;4.442;2022-08-05T03:35:08;21.00;89.70
43894;DHT22;29556;50.846;4.442;2022-08-05T03:37:34;20.90;89.90
43894;DHT22;29556;50.846;4.442;2022-08-05T03:40:00;21.00;89.80
43894;DHT22;29556;50.846;4.442;2022-08-05T03:42:28;21.00;89.80
43894;DHT22;29556;50.846;4.442;2022-08-05T03:44:54;21.00;89.70
43894;DHT22;29556;50.846;4.442;2022-08-05T03:47:19;21.00;89.40
43894;DHT22;29556;50.846;4.442;2022-08-05T03:49:46;21.00;89.70
43894;DHT22;29556;50.846;4.442;2022-08-05T03:52:18;21.00;89.50
43894;DHT22;29556;50.846;4.442;2022-08-05T03:54:54;20.90;89.00
43894;DHT22;29556;50.846;4.442;2022-08-05T03:57:25;20.90;89.40
43894;DHT22;29556;50.846;4.442;2022-08-05T04:00:12;20.90;89.60
43894;DHT22;29556;50.846;4.442;2022-08-05T04:02:39;20.90;89.70
43894;DHT22;29556;50.846;4.442;2022-08-05T04:05:07;20.90;89.90
43894;DHT22;29556;50.846;4.442;2022-08-05T04:07:34;20.90;89.40
43894;DHT22;29556;50.846;4.442;2022-08-05T04:10:00;20.90;89.40
43894;DHT22;29556;50.846;4.442;2022-08-05T04:12:27;20.90;89.40
43894;DHT22;29556;50.846;4.442;2022-08-05T04:14:53;20.90;89.20
43894;DHT22;29556;50.846;4.442;2022-08-05T04:17:19;20.90;89.50
43894;DHT22;29556;50.846;4.442;2022-08-05T04:19:46;20.90;89.10
43894;DHT22;29556;50.846;4.442;2022-08-05T04:22:13;20.90;88.20
43894;DHT22;29556;50.846;4.442;2022-08-05T04:24:44;20.80;88.00
43894;DHT22;29556;50.846;4.442;2022-08-05T04:27:13;20.80;88.80
43894;DHT22;29556;50.846;4.442;2022-08-05T04:29:39;20.80;89.10
43894;DHT22;29556;50.846;4.442;2022-08-05T04:32:06;20.80;89.20
43894;DHT22;29556;50.846;4.442;2022-08-05T04:34:32;20.70;89.10
43894;DHT22;29556;50.846;4.442;2022-08-05T04:36:58;20.70;89.00
43894;DHT22;29556;50.846;4.442;2022-08-05T04:39:23;20.70;89.10
43894;DHT22;29556;50.846;4.442;2022-08-05T04:41:49;20.70;89.50
43894;DHT22;29556;50.846;4.442;2022-08-05T04:44:15;20.70;89.30
43894;DHT22;29556;50.846;4.442;2022-08-05T04:46:41;20.70;89.40
43894;DHT22;29556;50.846;4.442;2022-08-05T04:49:07;20.60;89.20
43894;DHT22;29556;50.846;4.442;2022-08-05T04:51:33;20.60;89.30
43894;DHT22;29556;50.846;4.442;2022-08-05T04:53:59;20.60;89.40
43894;DHT22;29556;50.846;4.442;2022-08-05T04:56:25;20.60;89.20
43894;DHT22;29556;50.846;4.442;2022-08-05T04:58:51;20.60;88.90
43894;DHT22;29556;50.846;4.442;2022-08-05T05:01:18;20.60;89.30
43894;DHT22;29556;50.846;4.442;2022-08-05T05:03:43;20.60;89.30
43894;DHT22;29556;50.846;4.442;2022-08-05T05:06:10;20.70;89.60
43894;DHT22;29556;50.846;4.442;2022-08-05T05:08:38;20.70;89.40
43894;DHT22;29556;50.846;4.442;2022-08-05T05:11:05;20.60;89.30
43894;DHT22;29556;50.846;4.442;2022-08-05T05:13:31;20.70;89.70
43894;DHT22;29556;50.846;4.442;2022-08-05T05:15:57;20.70;89.70
43894;DHT22;29556;50.846;4.442;2022-08-05T05:18:23;20.70;89.80
43894;DHT22;29556;50.846;4.442;2022-08-05T05:20:49;20.70;90.00
43894;DHT22;29556;50.846;4.442;2022-08-05T05:23:15;20.70;89.90
43894;DHT22;29556;50.846;4.442;2022-08-05T05:25:42;20.70;89.90
43894;DHT22;29556;50.846;4.442;2022-08-05T05:28:09;20.70;89.30
43894;DHT22;29556;50.846;4.442;2022-08-05T05:30:38;20.80;89.30
43894;DHT22;29556;50.846;4.442;2022-08-05T05:33:05;20.80;89.60
43894;DHT22;29556;50.846;4.442;2022-08-05T05:35:32;20.80;89.70
43894;DHT22;29556;50.846;4.442;2022-08-05T05:38:00;20.90;89.70
43894;DHT22;29556;50.846;4.442;2022-08-05T05:40:28;20.90;89.80
43894;DHT22;29556;50.846;4.442;2022-08-05T05:42:54;20.90;90.00
43894;DHT22;29556;50.846;4.442;2022-08-05T05:45:20;21.00;89.30
43894;DHT22;29556;50.846;4.442;2022-08-05T05:47:46;21.00;88.20
43894;DHT22;29556;50.846;4.442;2022-08-05T05:50:15;21.00;88.70
43894;DHT22;29556;50.846;4.442;2022-08-05T05:52:41;21.00;88.80
43894;DHT22;29556;50.846;4.442;2022-08-05T05:55:11;21.00;88.90
43894;DHT22;29556;50.846;4.442;2022-08-05T05:57:39;21.00;89.10
43894;DHT22;29556;50.846;4.442;2022-08-05T06:00:08;21.00;88.80
43894;DHT22;29556;50.846;4.442;2022-08-05T06:02:34;21.10;88.40
43894;DHT22;29556;50.846;4.442;2022-08-05T06:04:59;21.10;88.50
43894;DHT22;29556;50.846;4.442;2022-08-05T06:07:25;21.10;88.60
43894;DHT22;29556;50.846;4.442;2022-08-05T06:09:52;21.00;88.60
43894;DHT22;29556;50.846;4.442;2022-08-05T06:12:17;21.10;88.20
43894;DHT22;29556;50.846;4.442;2022-08-05T06:14:43;21.00;88.30
43894;DHT22;29556;50.846;4.442;2022-08-05T06:17:10;21.10;87.60
43894;DHT22;29556;50.846;4.442;2022-08-05T06:19:36;21.00;88.50
43894;DHT22;29556;50.846;4.442;2022-08-05T06:22:06;21.10;88.70
43894;DHT22;29556;50.846;4.442;2022-08-05T06:24:34;21.20;88.70
43894;DHT22;29556;50.846;4.442;2022-08-05T06:27:01;21.20;88.30
43894;DHT22;29556;50.846;4.442;2022-08-05T06:29:30;21.30;88.60
43894;DHT22;29556;50.846;4.442;2022-08-05T06:31:55;21.30;89.10
43894;DHT22;29556;50.846;4.442;2022-08-05T06:34:21;21.40;88.00
43894;DHT22;29556;50.846;4.442;2022-08-05T06:36:47;21.40;88.00
43894;DHT22;29556;50.846;4.442;2022-08-05T06:39:12;21.50;87.70
43894;DHT22;29556;50.846;4.442;2022-08-05T06:41:38;21.50;87.90
43894;DHT22;29556;50.846;4.442;2022-08-05T06:44:04;21.50;87.50
43894;DHT22;29556;50.846;4.442;2022-08-05T06:46:29;21.60;87.20
43894;DHT22;29556;50.846;4.442;2022-08-05T06:48:55;21.60;87.50
43894;DHT22;29556;50.846;4.442;2022-08-05T06:51:21;21.60;87.90
43894;DHT22;29556;50.846;4.442;2022-08-05T06:53:47;21.50;87.20
43894;DHT22;29556;50.846;4.442;2022-08-05T06:56:13;21.60;87.20
43894;DHT22;29556;50.846;4.442;2022-08-05T06:58:38;21.60;87.20
43894;DHT22;29556;50.846;4.442;2022-08-05T07:01:08;21.60;87.30
43894;DHT22;29556;50.846;4.442;2022-08-05T07:03:33;21.60;87.10
43894;DHT22;29556;50.846;4.442;2022-08-05T07:06:00;21.70;87.10
43894;DHT22;29556;50.846;4.442;2022-08-05T07:08:26;21.70;87.00
43894;DHT22;29556;50.846;4.442;2022-08-05T07:10:53;21.70;86.80
43894;DHT22;29556;50.846;4.442;2022-08-05T07:13:22;21.80;85.90
43894;DHT22;29556;50.846;4.442;2022-08-05T07:16:06;21.80;85.50
43894;DHT22;29556;50.846;4.442;2022-08-05T07:18:50;21.80;85.20
43894;DHT22;29556;50.846;4.442;2022-08-05T07:21:17;21.80;86.10
43894;DHT22;29556;50.846;4.442;2022-08-05T07:23:43;21.80;85.20
43894;DHT22;29556;50.846;4.442;2022-08-05T07:26:08;21.70;84.70
43894;DHT22;29556;50.846;4.442;2022-08-05T07:28:34;21.80;85.40
43894;DHT22;29556;50.846;4.442;2022-08-05T07:30:59;21.80;85.80
43894;DHT22;29556;50.846;4.442;2022-08-05T07:33:25;21.80;85.70
43894;DHT22;29556;50.846;4.442;2022-08-05T07:35:50;21.80;85.50
43894;DHT22;29556;50.846;4.442;2022-08-05T07:38:17;21.80;83.60
43894;DHT22;29556;50.846;4.442;2022-08-05T07:40:43;21.80;84.40
43894;DHT22;29556;50.846;4.442;2022-08-05T07:43:09;21.90;85.30
43894;DHT22;29556;50.846;4.442;2022-08-05T07:45:35;22.00;85.90
43894;DHT22;29556;50.846;4.442;2022-08-05T07:48:01;22.10;85.30
43894;DHT22;29556;50.846;4.442;2022-08-05T07:50:26;22.20;85.80
43894;DHT22;29556;50.846;4.442;2022-08-05T07:52:53;22.30;84.70
43894;DHT22;29556;50.846;4.442;2022-08-05T07:55:19;22.50;83.00
43894;DHT22;29556;50.846;4.442;2022-08-05T07:57:46;22.60;83.80
43894;DHT22;29556;50.846;4.442;2022-08-05T08:00:12;22.60;83.20
43894;DHT22;29556;50.846;4.442;2022-08-05T08:02:39;22.60;82.70
43894;DHT22;29556;50.846;4.442;2022-08-05T08:05:09;22.60;81.00
43894;DHT22;29556;50.846;4.442;2022-08-05T08:07:35;22.50;80.80
43894;DHT22;29556;50.846;4.442;2022-08-05T08:10:01;22.50;81.70
43894;DHT22;29556;50.846;4.442;2022-08-05T08:12:26;22.60;82.90
43894;DHT22;29556;50.846;4.442;2022-08-05T08:14:52;22.70;81.50
43894;DHT22;29556;50.846;4.442;2022-08-05T08:17:18;22.90;83.10
43894;DHT22;29556;50.846;4.442;2022-08-05T08:19:44;23.00;82.50
43894;DHT22;29556;50.846;4.442;2022-08-05T08:22:10;22.90;81.30
43894;DHT22;29556;50.846;4.442;2022-08-05T08:24:36;22.90;81.40
43894;DHT22;29556;50.846;4.442;2022-08-05T08:27:03;22.90;79.30
43894;DHT22;29556;50.846;4.442;2022-08-05T08:29:31;22.80;78.60
43894;DHT22;29556;50.846;4.442;2022-08-05T08:31:57;22.60;78.20
43894;DHT22;29556;50.846;4.442;2022-08-05T08:34:24;22.50;77.70
43894;DHT22;29556;50.846;4.442;2022-08-05T08:36:50;22.30;79.10
43894;DHT22;29556;50.846;4.442;2022-08-05T08:39:16;22.30;79.50
43894;DHT22;29556;50.846;4.442;2022-08-05T08:41:49;22.20;79.50
43894;DHT22;29556;50.846;4.442;2022-08-05T08:44:17;22.20;78.60
43894;DHT22;29556;50.846;4.442;2022-08-05T08:46:46;22.20;79.90
43894;DHT22;29556;50.846;4.442;2022-08-05T08:49:18;22.30;80.40
43894;DHT22;29556;50.846;4.442;2022-08-05T08:51:48;22.50;80.50
43894;DHT22;29556;50.846;4.442;2022-08-05T08:54:14;22.60;81.30
43894;DHT22;29556;50.846;4.442;2022-08-05T08:56:41;22.80;81.10
43894;DHT22;29556;50.846;4.442;2022-08-05T08:59:07;23.00;79.80
43894;DHT22;29556;50.846;4.442;2022-08-05T09:01:35;23.10;79.90
43894;DHT22;29556;50.846;4.442;2022-08-05T09:04:02;23.20;79.50
43894;DHT22;29556;50.846;4.442;2022-08-05T09:06:30;23.20;80.40
43894;DHT22;29556;50.846;4.442;2022-08-05T09:08:57;23.10;76.80
43894;DHT22;29556;50.846;4.442;2022-08-05T09:11:23;23.10;77.20
43894;DHT22;29556;50.846;4.442;2022-08-05T09:13:49;23.00;78.10
43894;DHT22;29556;50.846;4.442;2022-08-05T09:16:15;23.10;77.60
43894;DHT22;29556;50.846;4.442;2022-08-05T09:18:44;23.10;76.90
43894;DHT22;29556;50.846;4.442;2022-08-05T09:21:10;23.00;75.20
43894;DHT22;29556;50.846;4.442;2022-08-05T09:23:35;22.90;76.30
43894;DHT22;29556;50.846;4.442;2022-08-05T09:26:13;22.90;75.20
43894;DHT22;29556;50.846;4.442;2022-08-05T09:28:42;22.90;74.60
43894;DHT22;29556;50.846;4.442;2022-08-05T09:31:12;22.70;74.10
43894;DHT22;29556;50.846;4.442;2022-08-05T09:36:18;22.60;76.40
43894;DHT22;29556;50.846;4.442;2022-08-05T09:38:58;22.60;77.50
43894;DHT22;29556;50.846;4.442;2022-08-05T09:41:24;22.80;78.30
43894;DHT22;29556;50.846;4.442;2022-08-05T09:43:50;22.90;78.50
43894;DHT22;29556;50.846;4.442;2022-08-05T09:46:42;23.00;78.30
43894;DHT22;29556;50.846;4.442;2022-08-05T09:49:21;23.20;77.40
43894;DHT22;29556;50.846;4.442;2022-08-05T09:51:47;23.20;74.00
43894;DHT22;29556;50.846;4.442;2022-08-05T09:54:13;23.10;73.80
43894;DHT22;29556;50.846;4.442;2022-08-05T09:56:42;23.00;72.20
43894;DHT22;29556;50.846;4.442;2022-08-05T09:59:12;22.90;71.50
43894;DHT22;29556;50.846;4.442;2022-08-05T10:01:43;22.80;71.70
43894;DHT22;29556;50.846;4.442;2022-08-05T10:04:14;22.80;70.40
43894;DHT22;29556;50.846;4.442;2022-08-05T10:06:53;22.90;72.50
43894;DHT22;29556;50.846;4.442;2022-08-05T10:09:21;22.90;71.60
43894;DHT22;29556;50.846;4.442;2022-08-05T10:11:48;23.00;73.00
43894;DHT22;29556;50.846;4.442;2022-08-05T10:14:29;23.20;72.30
43894;DHT22;29556;50.846;4.442;2022-08-05T10:17:13;23.30;68.00
43894;DHT22;29556;50.846;4.442;2022-08-05T10:19:40;23.50;71.00
43894;DHT22;29556;50.846;4.442;2022-08-05T10:22:09;23.60;70.00
43894;DHT22;29556;50.846;4.442;2022-08-05T10:24:35;23.60;67.50
43894;DHT22;29556;50.846;4.442;2022-08-05T10:27:02;23.70;66.60
43894;DHT22;29556;50.846;4.442;2022-08-05T10:29:27;23.60;67.00
43894;DHT22;29556;50.846;4.442;2022-08-05T10:31:56;23.50;68.80
43894;DHT22;29556;50.846;4.442;2022-08-05T10:34:22;23.50;68.00
43894;DHT22;29556;50.846;4.442;2022-08-05T10:36:48;23.40;68.10
43894;DHT22;29556;50.846;4.442;2022-08-05T10:39:20;23.40;69.10
43894;DHT22;29556;50.846;4.442;2022-08-05T10:44:19;23.40;65.20
43894;DHT22;29556;50.846;4.442;2022-08-05T10:47:10;23.50;66.60
43894;DHT22;29556;50.846;4.442;2022-08-05T10:50:04;23.50;65.30
43894;DHT22;29556;50.846;4.442;2022-08-05T10:52:51;23.60;63.60
43894;DHT22;29556;50.846;4.442;2022-08-05T10:55:25;23.60;61.50
43894;DHT22;29556;50.846;4.442;2022-08-05T10:58:09;23.40;61.20
43894;DHT22;29556;50.846;4.442;2022-08-05T11:00:35;23.40;64.00
43894;DHT22;29556;50.846;4.442;2022-08-05T11:05:32;23.60;62.60
43894;DHT22;29556;50.846;4.442;2022-08-05T11:08:04;23.80;66.00
43894;DHT22;29556;50.846;4.442;2022-08-05T11:10:32;23.90;66.00
43894;DHT22;29556;50.846;4.442;2022-08-05T11:13:02;23.90;63.80
43894;DHT22;29556;50.846;4.442;2022-08-05T11:15:30;23.80;57.70
43894;DHT22;29556;50.846;4.442;2022-08-05T11:18:28;23.80;59.90
43894;DHT22;29556;50.846;4.442;2022-08-05T11:20:54;24.10;61.50
43894;DHT22;29556;50.846;4.442;2022-08-05T11:23:33;24.20;58.00
43894;DHT22;29556;50.846;4.442;2022-08-05T11:28:46;24.20;56.50
43894;DHT22;29556;50.846;4.442;2022-08-05T11:36:13;24.10;60.30
43894;DHT22;29556;50.846;4.442;2022-08-05T11:41:22;24.00;56.90
43894;DHT22;29556;50.846;4.442;2022-08-05T11:44:00;23.90;57.80
43894;DHT22;29556;50.846;4.442;2022-08-05T11:46:38;24.00;60.00
43894;DHT22;29556;50.846;4.442;2022-08-05T11:49:06;24.20;57.50
43894;DHT22;29556;50.846;4.442;2022-08-05T11:51:32;24.30;57.10
43894;DHT22;29556;50.846;4.442;2022-08-05T11:53:58;24.40;59.80
43894;DHT22;29556;50.846;4.442;2022-08-05T11:56:40;24.50;58.70
43894;DHT22;29556;50.846;4.442;2022-08-05T11:59:06;24.60;58.20
43894;DHT22;29556;50.846;4.442;2022-08-05T12:01:51;24.50;58.10
43894;DHT22;29556;50.846;4.442;2022-08-05T12:04:17;24.50;58.40
43894;DHT22;29556;50.846;4.442;2022-08-05T12:06:45;24.50;58.20
43894;DHT22;29556;50.846;4.442;2022-08-05T12:09:11;24.60;57.20
43894;DHT22;29556;50.846;4.442;2022-08-05T12:11:36;24.50;56.80
43894;DHT22;29556;50.846;4.442;2022-08-05T12:14:07;24.30;56.80
43894;DHT22;29556;50.846;4.442;2022-08-05T12:16:35;24.30;57.60
43894;DHT22;29556;50.846;4.442;2022-08-05T12:19:02;24.30;58.60
43894;DHT22;29556;50.846;4.442;2022-08-05T12:21:34;24.40;57.40
43894;DHT22;29556;50.846;4.442;2022-08-05T12:24:03;24.40;56.60
43894;DHT22;29556;50.846;4.442;2022-08-05T12:26:41;24.50;56.90
43894;DHT22;29556;50.846;4.442;2022-08-05T12:29:21;24.60;55.30
43894;DHT22;29556;50.846;4.442;2022-08-05T12:31:48;24.70;55.20
43894;DHT22;29556;50.846;4.442;2022-08-05T12:34:16;24.70;55.50
43894;DHT22;29556;50.846;4.442;2022-08-05T12:36:43;24.80;55.80
43894;DHT22;29556;50.846;4.442;2022-08-05T12:39:10;24.70;54.50
43894;DHT22;29556;50.846;4.442;2022-08-05T12:41:38;24.70;56.00
43894;DHT22;29556;50.846;4.442;2022-08-05T12:44:05;24.80;55.90
43894;DHT22;29556;50.846;4.442;2022-08-05T12:46:41;24.80;53.60
43894;DHT22;29556;50.846;4.442;2022-08-05T12:51:54;24.70;52.90
43894;DHT22;29556;50.846;4.442;2022-08-05T12:54:31;24.70;53.40
43894;DHT22;29556;50.846;4.442;2022-08-05T12:57:04;24.60;54.40
43894;DHT22;29556;50.846;4.442;2022-08-05T12:59:32;24.70;54.80
43894;DHT22;29556;50.846;4.442;2022-08-05T13:02:08;24.80;55.10
43894;DHT22;29556;50.846;4.442;2022-08-05T13:04:39;25.00;53.90
43894;DHT22;29556;50.846;4.442;2022-08-05T13:07:09;24.90;53.70
43894;DHT22;29556;50.846;4.442;2022-08-05T13:09:39;24.90;52.40
43894;DHT22;29556;50.846;4.442;2022-08-05T13:12:08;24.80;51.50
43894;DHT22;29556;50.846;4.442;2022-08-05T13:14:39;24.60;49.50
43894;DHT22;29556;50.846;4.442;2022-08-05T13:17:20;24.60;51.50
43894;DHT22;29556;50.846;4.442;2022-08-05T13:22:39;24.60;53.30
43894;DHT22;29556;50.846;4.442;2022-08-05T13:25:10;24.70;54.60
43894;DHT22;29556;50.846;4.442;2022-08-05T13:27:48;24.70;51.30
43894;DHT22;29556;50.846;4.442;2022-08-05T13:30:17;24.80;52.40
43894;DHT22;29556;50.846;4.442;2022-08-05T13:32:43;24.90;53.80
43894;DHT22;29556;50.846;4.442;2022-08-05T13:35:13;25.00;53.90
43894;DHT22;29556;50.846;4.442;2022-08-05T13:37:39;25.00;51.20
43894;DHT22;29556;50.846;4.442;2022-08-05T13:40:05;25.00;51.90
43894;DHT22;29556;50.846;4.442;2022-08-05T13:42:31;25.10;52.00
43894;DHT22;29556;50.846;4.442;2022-08-05T13:44:56;25.10;53.90
43894;DHT22;29556;50.846;4.442;2022-08-05T13:47:23;25.20;52.50
43894;DHT22;29556;50.846;4.442;2022-08-05T13:49:49;25.20;49.10
43894;DHT22;29556;50.846;4.442;2022-08-05T13:52:24;25.20;51.70
43894;DHT22;29556;50.846;4.442;2022-08-05T13:54:54;25.40;50.00
43894;DHT22;29556;50.846;4.442;2022-08-05T13:57:21;25.20;49.80
43894;DHT22;29556;50.846;4.442;2022-08-05T13:59:49;25.20;50.30
43894;DHT22;29556;50.846;4.442;2022-08-05T14:02:16;25.40;51.00
43894;DHT22;29556;50.846;4.442;2022-08-05T14:04:44;25.50;50.00
43894;DHT22;29556;50.846;4.442;2022-08-05T14:07:37;25.60;49.00
43894;DHT22;29556;50.846;4.442;2022-08-05T14:12:36;25.60;50.00
43894;DHT22;29556;50.846;4.442;2022-08-05T14:15:03;25.50;50.00
43894;DHT22;29556;50.846;4.442;2022-08-05T14:17:31;25.30;49.30
43894;DHT22;29556;50.846;4.442;2022-08-05T14:19:59;25.20;48.90
43894;DHT22;29556;50.846;4.442;2022-08-05T14:22:28;25.20;49.80
43894;DHT22;29556;50.846;4.442;2022-08-05T14:24:56;25.40;50.00
43894;DHT22;29556;50.846;4.442;2022-08-05T14:27:21;25.40;50.10
43894;DHT22;29556;50.846;4.442;2022-08-05T14:29:47;25.50;49.40
43894;DHT22;29556;50.846;4.442;2022-08-05T14:32:12;25.40;49.10
43894;DHT22;29556;50.846;4.442;2022-08-05T14:34:39;25.30;49.10
43894;DHT22;29556;50.846;4.442;2022-08-05T14:37:04;25.30;48.00
43894;DHT22;29556;50.846;4.442;2022-08-05T14:39:33;25.20;49.50
43894;DHT22;29556;50.846;4.442;2022-08-05T14:42:03;25.20;49.50
43894;DHT22;29556;50.846;4.442;2022-08-05T14:44:28;25.30;48.40
43894;DHT22;29556;50.846;4.442;2022-08-05T14:46:54;25.40;50.40
43894;DHT22;29556;50.846;4.442;2022-08-05T14:49:20;25.50;50.20
43894;DHT22;29556;50.846;4.442;2022-08-05T14:51:45;25.50;50.40
43894;DHT22;29556;50.846;4.442;2022-08-05T14:54:11;25.60;50.70
43894;DHT22;29556;50.846;4.442;2022-08-05T14:56:38;25.50;47.60
43894;DHT22;29556;50.846;4.442;2022-08-05T14:59:05;25.40;48.80
43894;DHT22;29556;50.846;4.442;2022-08-05T15:01:31;25.30;48.60
43894;DHT22;29556;50.846;4.442;2022-08-05T15:04:00;25.30;49.10
43894;DHT22;29556;50.846;4.442;2022-08-05T15:06:31;25.40;50.50
43894;DHT22;29556;50.846;4.442;2022-08-05T15:08:57;25.40;49.90
43894;DHT22;29556;50.846;4.442;2022-08-05T15:11:23;25.40;49.40
43894;DHT22;29556;50.846;4.442;2022-08-05T15:13:48;25.40;48.80
43894;DHT22;29556;50.846;4.442;2022-08-05T15:16:18;25.40;47.30
43894;DHT22;29556;50.846;4.442;2022-08-05T15:18:44;25.40;47.80
43894;DHT22;29556;50.846;4.442;2022-08-05T15:21:13;25.30;48.20
43894;DHT22;29556;50.846;4.442;2022-08-05T15:23:38;25.30;46.20
43894;DHT22;29556;50.846;4.442;2022-08-05T15:26:04;25.40;46.30
43894;DHT22;29556;50.846;4.442;2022-08-05T15:28:30;25.50;48.40
43894;DHT22;29556;50.846;4.442;2022-08-05T15:30:56;25.50;46.80
43894;DHT22;29556;50.846;4.442;2022-08-05T15:33:21;25.50;46.00
43894;DHT22;29556;50.846;4.442;2022-08-05T15:35:48;25.50;47.90
43894;DHT22;29556;50.846;4.442;2022-08-05T15:38:13;25.40;49.20
43894;DHT22;29556;50.846;4.442;2022-08-05T15:40:41;25.50;48.60
43894;DHT22;29556;50.846;4.442;2022-08-05T15:43:07;25.50;48.30
43894;DHT22;29556;50.846;4.442;2022-08-05T15:45:32;25.40;48.20
43894;DHT22;29556;50.846;4.442;2022-08-05T15:47:58;25.40;47.70
43894;DHT22;29556;50.846;4.442;2022-08-05T15:50:26;25.10;48.50
43894;DHT22;29556;50.846;4.442;2022-08-05T15:52:52;25.10;48.20
43894;DHT22;29556;50.846;4.442;2022-08-05T15:55:17;25.20;48.30
43894;DHT22;29556;50.846;4.442;2022-08-05T15:57:43;25.10;48.00
43894;DHT22;29556;50.846;4.442;2022-08-05T16:00:10;25.10;48.90
43894;DHT22;29556;50.846;4.442;2022-08-05T16:02:36;25.10;48.20
43894;DHT22;29556;50.846;4.442;2022-08-05T16:05:02;24.90;47.70
43894;DHT22;29556;50.846;4.442;2022-08-05T16:07:28;24.70;49.20
43894;DHT22;29556;50.846;4.442;2022-08-05T16:09:53;24.60;47.80
43894;DHT22;29556;50.846;4.442;2022-08-05T16:12:19;24.30;49.50
43894;DHT22;29556;50.846;4.442;2022-08-05T16:14:45;24.30;49.40